Time;durP1;ratioP1;P1;durP2;ratioP2;P2;SDS_P1;SDS_P2;PMS_P1;PMS_P2;Temp;Humidity;BMP_temperature;BMP_pressure;BME280_temperature;BME280_humidity;BME280_pressure;Samples;Min_cycle;Max_cycle;Signal;HPM_P1;HPM_P2
2023/03/28 00:01:40;;;;;;;;;;;;;;;;;;5033359;28;19952;-94
2023/03/28 00:04:10;;;;;;;;;;;;;;;;;;5038977;28;19929;-95
2023/03/28 00:06:37;;;;;;;;;;;;;;;;;;5037587;28;19924;-94
2023/03/28 00:09:04;;;;;;;;;;;;;;;;;;5036517;28;19997;-95
2023/03/28 00:11:30;;;;;;;;;;;;;;;;;;5039534;28;19956;-95
2023/03/28 00:13:59;;;;;;;;;;;;;;;;;;5036555;28;19966;-94
2023/03/28 00:16:30;;;;;;;;;;;;;;;;;;5037512;28;19925;-96
2023/03/28 00:18:59;;;;;;;;;;;;;;;;;;5036120;28;19960;-94
2023/03/28 00:21:25;;;;;;;;;;;;;;;;;;5032426;28;19986;-93
2023/03/28 00:24:01;;;;;;;;;;;;;;;;;;5053872;28;19956;-94
2023/03/28 00:26:28;;;;;;;;;;;;;;;;;;5039150;28;19921;-94
2023/03/28 00:28:54;;;;;;;;;;;;;;;;;;5033936;28;19935;-93
2023/03/28 00:31:20;;;;;;;;;;;;;;;;;;5030297;28;19921;-94
2023/03/28 00:33:49;;;;;;;;;;;;;;;;;;5049788;28;19928;-92
2023/03/28 00:36:17;;;;;;;;;;;;;;;;;;5033108;28;19948;-93
2023/03/28 00:38:44;;;;;;;;;;;;;;;;;;5053942;28;19905;-94
2023/03/28 00:41:10;;;;;;;;;;;;;;;;;;5033899;28;19928;-93
2023/03/28 00:43:36;;;;;;;;;;;;;;;;;;5032761;28;19921;-93
2023/03/28 00:46:02;;;;;;;;;;;;;;;;;;5036252;28;19921;-93
2023/03/28 00:48:31;;;;;;;;;;;;;;;;;;5038691;28;19911;-95
2023/03/28 00:51:02;;;;;;;;;;;;;;;;;;5038135;28;19912;-94
2023/03/28 00:53:30;;;;;;;;;;;;;;;;;;5078887;28;19964;-95
2023/03/28 00:55:56;;;;;;;;;;;;;;;;;;5039553;28;19924;-94
2023/03/28 00:58:22;;;;;;;;;;;;;;;;;;5045555;28;19921;-94
2023/03/28 01:00:53;;;;;;;;;;;;;;;;;;5038068;28;19921;-96
2023/03/28 01:03:22;;;;;;;;;;;;;;;;;;5043496;28;19963;-94
2023/03/28 01:05:49;;;;;;;;;;;;;;;;;;5038465;28;19971;-94
2023/03/28 01:08:23;;;;;;;;;;;;;;;;;;5073217;28;19921;-94
2023/03/28 01:10:49;;;;;;;;;;;;;;;;;;5038302;28;19921;-94
2023/03/28 01:13:15;;;;;;;;;;;;;;;;;;5038714;28;20399;-94
2023/03/28 01:15:40;;;;;;;;;;;;;;;;;;5053258;28;19924;-93
2023/03/28 01:18:09;;;;;;;;;;;;;;;;;;5038328;28;19943;-94
2023/03/28 01:20:35;;;;;;;;;;;;;;;;;;5037654;28;19921;-95
2023/03/28 01:23:01;;;;;;;;;;;;;;;;;;5040864;28;19924;-95
2023/03/28 01:25:28;;;;;;;;;;;;;;;;;;5045124;28;19916;-94
2023/03/28 01:28:00;;;;;;;;;;;;;;;;;;5040712;28;19931;-94
2023/03/28 01:30:27;;;;;;;;;;;;;;;;;;5043988;28;19921;-94
2023/03/28 01:32:53;;;;;;;;;;;;;;;;;;5037440;28;19920;-93
2023/03/28 01:35:19;;;;;;;;;;;;;;;;;;5042833;28;19932;-93
2023/03/28 01:37:45;;;;;;;;;;;;;;;;;;5036806;28;19920;-94
2023/03/28 01:40:15;;;;;;;;;;;;;;;;;;5043137;28;19935;-94
2023/03/28 01:42:41;;;;;;;;;;;;;;;;;;5037546;28;20007;-94
2023/03/28 01:45:10;;;;;;;;;;;;;;;;;;5054109;28;20329;-93
2023/03/28 01:47:36;;;;;;;;;;;;;;;;;;5357827;23;19925;-95
2023/03/28 01:50:02;;;;;;;;;;;;;;;;;;5057072;28;19909;-95
2023/03/28 01:52:31;;;;;;;;;;;;;;;;;;5052198;28;19975;-95
2023/03/28 01:54:59;;;;;;;;;;;;;;;;;;5040544;28;19956;-93
2023/03/28 01:57:25;;;;;;;;;;;;;;;;;;5052472;28;19921;-94
2023/03/28 01:59:51;;;;;;;;;;;;;;;;;;5050613;28;19975;-94
2023/03/28 02:02:17;;;;;;;;;;;;;;;;;;5040169;28;19937;-93
2023/03/28 02:04:44;;;;;;;;;;;;;;;;;;5055806;28;19928;-94
2023/03/28 02:07:14;;;;;;;;;;;;;;;;;;5040767;28;19936;-94
2023/03/28 02:09:40;;;;;;;;;;;;;;;;;;5048805;28;19921;-93
2023/03/28 02:12:07;;;;;;;;;;;;;;;;;;5055438;28;19973;-94
2023/03/28 02:14:36;;;;;;;;;;;;;;;;;;5072068;28;19932;-93
2023/03/28 02:17:08;;;;;;;;;;;;;;;;;;5069862;28;20416;-93
2023/03/28 02:19:34;;;;;;;;;;;;;;;;;;5068545;28;19965;-92
2023/03/28 02:22:00;;;;;;;;;;;;;;;;;;5074849;28;20409;-94
2023/03/28 02:24:28;;;;;;;;;;;;;;;;;;5074695;28;19928;-93
2023/03/28 02:26:54;;;;;;;;;;;;;;;;;;5073267;28;20366;-94
2023/03/28 02:29:20;;;;;;;;;;;;;;;;;;5048212;28;19921;-91
2023/03/28 02:31:46;;;;;;;;;;;;;;;;;;5064875;28;19984;-94
2023/03/28 02:34:12;;;;;;;;;;;;;;;;;;5048952;28;20371;-94
2023/03/28 02:36:38;;;;;;;;;;;;;;;;;;5043399;28;19926;-94
2023/03/28 02:41:38;;;;;;;;;;;;;;;;;;5051198;28;19928;-93
2023/03/28 02:44:04;;;;;;;;;;;;;;;;;;5031662;28;19926;-91
2023/03/28 02:46:30;;;;;;;;;;;;;;;;;;5028712;28;20402;-94
2023/03/28 02:48:56;;;;;;;;;;;;;;;;;;5042559;28;19905;-94
2023/03/28 02:51:22;;;;;;;;;;;;;;;;;;5013024;28;19921;-94
2023/03/28 02:53:48;;;;;;;;;;;;;;;;;;5012593;28;19921;-93
2023/03/28 02:56:14;;;;;;;;;;;;;;;;;;5012594;28;19954;-93
2023/03/28 02:58:40;;;;;;;;;;;;;;;;;;5041657;28;20015;-92
2023/03/28 03:01:13;;;;;;;;;;;;;;;;;;5044370;28;19924;-90
2023/03/28 03:03:49;;;;;;;;;;;;;;;;;;5042183;28;19917;-94
2023/03/28 03:06:16;;;;;;;;;;;;;;;;;;5035644;28;20006;-94
2023/03/28 03:08:42;;;;;;;;;;;;;;;;;;5031865;28;19905;-93
2023/03/28 03:11:27;;;;;;;;;;;;;;;;;;5063624;28;19933;-93
2023/03/28 03:13:53;;;;;;;;;;;;;;;;;;5083810;22;19905;-94
2023/03/28 03:16:19;;;;;;;;;;;;;;;;;;5037903;28;19946;-93
2023/03/28 03:18:45;;;;;;;;;;;;;;;;;;5055910;28;19928;-94
2023/03/28 03:21:11;;;;;;;;;;;;;;;;;;5036932;28;19928;-95
2023/03/28 03:23:37;;;;;;;;;;;;;;;;;;5035477;28;19980;-95
2023/03/28 03:26:03;;;;;;;;;;;;;;;;;;5042917;28;19927;-94
2023/03/28 03:28:31;;;;;;;;;;;;;;;;;;5057700;28;19921;-93
2023/03/28 03:31:01;;;;;;;;;;;;;;;;;;5056151;28;19935;-92
2023/03/28 03:33:28;;;;;;;;;;;;;;;;;;5056970;28;19921;-92
2023/03/28 03:35:54;;;;;;;;;;;;;;;;;;5035643;28;19924;-93
2023/03/28 03:38:20;;;;;;;;;;;;;;;;;;5036963;28;19925;-94
2023/03/28 03:40:46;;;;;;;;;;;;;;;;;;5036207;28;19932;-94
2023/03/28 03:43:12;;;;;;;;;;;;;;;;;;5037064;28;19921;-94
2023/03/28 03:45:44;;;;;;;;;;;;;;;;;;5054299;28;19927;-94
2023/03/28 03:48:10;;;;;;;;;;;;;;;;;;5041592;28;19909;-93
2023/03/28 03:50:36;;;;;;;;;;;;;;;;;;5031654;28;19991;-94
2023/03/28 03:53:03;;;;;;;;;;;;;;;;;;5015776;28;20325;-94
2023/03/28 03:55:29;;;;;;;;;;;;;;;;;;5015665;28;20293;-93
2023/03/28 03:57:59;;;;;;;;;;;;;;;;;;5021322;28;19921;-93
2023/03/28 04:00:36;;;;;;;;;;;;;;;;;;5038701;28;19917;-95
2023/03/28 04:03:03;;;;;;;;;;;;;;;;;;5038434;28;19976;-95
2023/03/28 04:05:35;;;;;;;;;;;;;;;;;;5048449;28;19921;-94
2023/03/28 04:08:05;;;;;;;;;;;;;;;;;;5047722;28;19913;-91
2023/03/28 04:10:30;;;;;;;;;;;;;;;;;;5034107;28;19925;-93
2023/03/28 04:12:56;;;;;;;;;;;;;;;;;;5034391;28;19966;-95
2023/03/28 04:15:22;;;;;;;;;;;;;;;;;;5038207;28;19960;-94
2023/03/28 04:17:55;;;;;;;;;;;;;;;;;;5058524;28;19925;-93
2023/03/28 04:20:21;;;;;;;;;;;;;;;;;;5038329;28;19921;-92
2023/03/28 04:22:47;;;;;;;;;;;;;;;;;;5033265;28;19925;-94
2023/03/28 04:25:13;;;;;;;;;;;;;;;;;;5021463;28;19905;-93
2023/03/28 04:27:45;;;;;;;;;;;;;;;;;;5023345;28;19951;-93
2023/03/28 04:30:16;;;;;;;;;;;;;;;;;;5032980;28;19921;-94
2023/03/28 04:32:42;;;;;;;;;;;;;;;;;;5014427;28;19921;-93
2023/03/28 04:35:10;;;;;;;;;;;;;;;;;;5016218;28;19920;-94
2023/03/28 04:37:39;;;;;;;;;;;;;;;;;;5022603;28;20483;-94
2023/03/28 04:40:11;;;;;;;;;;;;;;;;;;5021125;28;19921;-95
2023/03/28 04:42:38;;;;;;;;;;;;;;;;;;5039777;28;19909;-94
2023/03/28 04:45:05;;;;;;;;;;;;;;;;;;5023795;28;19913;-94
2023/03/28 04:50:36;;;;;;;;;;;;;;;;;;5062020;28;19921;-95
2023/03/28 04:53:03;;;;;;;;;;;;;;;;;;5039761;28;19968;-92
2023/03/28 04:55:32;;;;;;;;;;;;;;;;;;5024079;28;19912;-93
2023/03/28 04:58:02;;;;;;;;;;;;;;;;;;5039316;28;19933;-93
2023/03/28 05:00:28;;;;;;;;;;;;;;;;;;5021520;28;19905;-94
2023/03/28 05:03:00;;;;;;;;;;;;;;;;;;5042570;28;19909;-93
2023/03/28 05:05:28;;;;;;;;;;;;;;;;;;5033757;28;19921;-93
2023/03/28 05:07:54;;;;;;;;;;;;;;;;;;5026137;28;19971;-94
2023/03/28 05:10:20;;;;;;;;;;;;;;;;;;5016528;28;20430;-94
2023/03/28 05:12:46;;;;;;;;;;;;;;;;;;5033543;28;19980;-94
2023/03/28 05:15:12;;;;;;;;;;;;;;;;;;5034187;28;19921;-93
2023/03/28 05:17:39;;;;;;;;;;;;;;;;;;5034116;28;19940;-93
2023/03/28 05:20:08;;;;;;;;;;;;;;;;;;5022599;28;19971;-92
2023/03/28 05:22:35;;;;;;;;;;;;;;;;;;5016550;28;19989;-94
2023/03/28 05:25:01;;;;;;;;;;;;;;;;;;5015488;28;19933;-94
2023/03/28 05:27:26;;;;;;;;;;;;;;;;;;5042531;28;20452;-95
2023/03/28 05:29:52;;;;;;;;;;;;;;;;;;5035095;28;19921;-94
2023/03/28 05:32:18;;;;;;;;;;;;;;;;;;5016982;28;20366;-94
2023/03/28 05:34:44;;;;;;;;;;;;;;;;;;5017484;28;19925;-92
2023/03/28 05:37:10;;;;;;;;;;;;;;;;;;5015578;28;19925;-94
2023/03/28 05:39:37;;;;;;;;;;;;;;;;;;5037243;28;20015;-94
2023/03/28 05:42:03;;;;;;;;;;;;;;;;;;5034601;28;19961;-94
2023/03/28 05:47:04;;;;;;;;;;;;;;;;;;5249498;22;19925;-93
2023/03/28 05:49:30;;;;;;;;;;;;;;;;;;5036425;28;19928;-90
2023/03/28 05:51:56;;;;;;;;;;;;;;;;;;5037678;28;19982;-92
2023/03/28 05:54:22;;;;;;;;;;;;;;;;;;5057543;28;19920;-94
2023/03/28 05:56:49;;;;;;;;;;;;;;;;;;5040639;28;19908;-94
2023/03/28 05:59:17;;;;;;;;;;;;;;;;;;5033556;28;19928;-95
2023/03/28 06:01:45;;;;;;;;;;;;;;;;;;5022402;28;19952;-91
2023/03/28 06:04:22;;;;;;;;;;;;;;;;;;5040356;28;19921;-93
2023/03/28 06:06:49;;;;;;;;;;;;;;;;;;5025801;28;19943;-94
2023/03/28 06:09:15;;;;;;;;;;;;;;;;;;5036193;28;19959;-92
2023/03/28 06:11:45;;;;;;;;;;;;;;;;;;5061851;28;19924;-92
2023/03/28 06:14:11;;;;;;;;;;;;;;;;;;5042983;28;19912;-91
2023/03/28 06:16:37;;;;;;;;;;;;;;;;;;5044611;28;19974;-91
2023/03/28 06:19:12;;;;;;;;;;;;;;;;;;5053860;28;19905;-93
2023/03/28 06:21:42;;;;;;;;;;;;;;;;;;5057966;28;19916;-88
2023/03/28 06:24:10;;;;;;;;;;;;;;;;;;5023915;28;19952;-91
2023/03/28 06:26:36;;;;;;;;;;;;;;;;;;5024751;28;19927;-88
2023/03/28 06:29:05;;;;;;;;;;;;;;;;;;5023423;28;19921;-90
2023/03/28 06:31:31;;;;;;;;;;;;;;;;;;5022282;28;19944;-89
2023/03/28 06:33:58;;;;;;;;;;;;;;;;;;5022232;28;19984;-88
2023/03/28 06:36:27;;;;;;;;;;;;;;;;;;5022403;28;19932;-90
2023/03/28 06:38:53;;;;;;;;;;;;;;;;;;5021336;28;20000;-88
2023/03/28 06:41:21;;;;;;;;;;;;;;;;;;5022357;28;19984;-89
2023/03/28 06:43:47;;;;;;;;;;;;;;;;;;5027533;28;19929;-90
2023/03/28 06:46:19;;;;;;;;;;;;;;;;;;5042002;28;19925;-92
2023/03/28 06:49:05;;;;;;;;;;;;;;;;;;5059046;28;19925;-90
2023/03/28 06:51:35;;;;;;;;;;;;;;;;;;5040574;28;19936;-93
2023/03/28 06:54:01;;;;;;;;;;;;;;;;;;5039821;28;19925;-93
2023/03/28 06:56:27;;;;;;;;;;;;;;;;;;5038487;28;19932;-93
2023/03/28 06:58:53;;;;;;;;;;;;;;;;;;5037740;28;19931;-94
2023/03/28 07:01:38;;;;;;;;;;;;;;;;;;5077974;28;19928;-90
2023/03/28 07:04:04;;;;;;;;;;;;;;;;;;5040202;28;19970;-91
2023/03/28 07:06:30;;;;;;;;;;;;;;;;;;5039952;28;19931;-94
2023/03/28 07:08:57;;;;;;;;;;;;;;;;;;5032901;28;19921;-91
2023/03/28 07:11:23;;;;;;;;;;;;;;;;;;5049269;28;19924;-92
2023/03/28 07:13:49;;;;;;;;;;;;;;;;;;5033628;28;19952;-90
2023/03/28 07:16:15;;;;;;;;;;;;;;;;;;5034410;28;19924;-92
2023/03/28 07:18:41;;;;;;;;;;;;;;;;;;5037522;28;19920;-91
2023/03/28 07:21:07;;;;;;;;;;;;;;;;;;5036172;28;19927;-90
2023/03/28 07:23:33;;;;;;;;;;;;;;;;;;5032417;28;19925;-90
2023/03/28 07:25:59;;;;;;;;;;;;;;;;;;5016494;28;19921;-88
2023/03/28 07:28:25;;;;;;;;;;;;;;;;;;5020880;28;19960;-91
2023/03/28 07:31:03;;;;;;;;;;;;;;;;;;;;;
2023/03/28 07:33:29;;;;;;;;;;;;;;;;;;5045361;28;19920;-86
2023/03/28 07:35:55;;;;;;;;;;;;;;;;;;5034925;28;20401;-85
2023/03/28 07:38:21;;;;;;;;;;;;;;;;;;5031129;28;19921;-86
2023/03/28 07:40:47;;;;;;;;;;;;;;;;;;5046527;28;19920;-87
2023/03/28 07:43:12;;;;;;;;;;;;;;;;;;5033630;28;19954;-85
2023/03/28 07:45:38;;;;;;;;;;;;;;;;;;5035589;28;19921;-86
2023/03/28 07:48:05;;;;;;;;;;;;;;;;;;5033029;28;19927;-88
2023/03/28 07:50:35;;;;;;;;;;;;;;;;;;5047777;28;19927;-88
2023/03/28 07:53:01;;;;;;;;;;;;;;;;;;5028902;28;19963;-89
2023/03/28 07:55:27;;;;;;;;;;;;;;;;;;5030195;28;20295;-89
2023/03/28 07:57:55;;;;;;;;;;;;;;;;;;5034974;28;19944;-89
2023/03/28 08:00:24;;;;;;;;;;;;;;;;;;5022134;28;19921;-88
2023/03/28 08:02:58;;;;;;;;;;;;;;;;;;5019206;28;19970;-88
2023/03/28 08:05:25;;;;;;;;;;;;;;;;;;5030244;28;20007;-88
2023/03/28 08:07:52;;;;;;;;;;;;;;;;;;5034609;28;19936;-92
2023/03/28 08:10:21;;;;;;;;;;;;;;;;;;5032932;28;19928;-88
2023/03/28 08:12:48;;;;;;;;;;;;;;;;;;5030385;28;19943;-87
2023/03/28 08:15:14;;;;;;;;;;;;;;;;;;5030829;28;19932;-89
2023/03/28 08:17:40;;;;;;;;;;;;;;;;;;5029923;28;19927;-90
2023/03/28 08:20:09;;;;;;;;;;;;;;;;;;5047214;28;19921;-89
2023/03/28 08:22:35;;;;;;;;;;;;;;;;;;5031196;28;19921;-88
2023/03/28 08:25:01;;;;;;;;;;;;;;;;;;5024159;28;19921;-89
2023/03/28 08:27:27;;;;;;;;;;;;;;;;;;5017611;28;19961;-89
2023/03/28 08:29:53;;;;;;;;;;;;;;;;;;5024056;28;19921;-89
2023/03/28 08:32:19;;;;;;;;;;;;;;;;;;5037527;28;19927;-88
2023/03/28 08:34:49;;;;;;;;;;;;;;;;;;5050385;28;19979;-88
2023/03/28 08:37:20;;;;;;;;;;;;;;;;;;5047166;28;19928;-88
2023/03/28 08:39:46;;;;;;;;;;;;;;;;;;5050687;28;19967;-90
2023/03/28 08:42:12;;;;;;;;;;;;;;;;;;5033480;28;19935;-88
2023/03/28 08:44:38;;;;;;;;;;;;;;;;;;5035782;28;19920;-90
2023/03/28 08:47:04;;;;;;;;;;;;;;;;;;5034220;28;19921;-88
2023/03/28 08:49:30;;;;;;;;;;;;;;;;;;5051208;28;19959;-90
2023/03/28 08:54:43;;;;;;;;;;;;;;;;;;5052223;28;19929;-88
2023/03/28 08:57:27;;;;;;;;;;;;;;;;;;5065581;28;19943;-88
2023/03/28 08:59:53;;;;;;;;;;;;;;;;;;5036645;28;19925;-89
2023/03/28 09:02:25;;;;;;;;;;;;;;;;;;5057871;28;19925;-88
2023/03/28 09:04:51;;;;;;;;;;;;;;;;;;5037672;28;19904;-90
2023/03/28 09:07:17;;;;;;;;;;;;;;;;;;5031281;28;19921;-89
2023/03/28 09:10:25;;;;;;;;;;;;;;;;;;5030003;28;19932;-91
2023/03/28 09:12:37;;;;;;;;;;;;;;;;;;5035007;28;19921;-88
2023/03/28 09:15:03;;;;;;;;;;;;;;;;;;5026088;28;19952;-92
2023/03/28 09:17:34;;;;;;;;;;;;;;;;;;5033661;28;19925;-92
2023/03/28 09:20:13;;;;;;;;;;;;;;;;;;5043394;28;19921;-94
2023/03/28 09:22:39;;;;;;;;;;;;;;;;;;5037283;28;19916;-93
2023/03/28 09:25:05;;;;;;;;;;;;;;;;;;5036596;28;19921;-93
2023/03/28 09:27:31;;;;;;;;;;;;;;;;;;5038501;28;19970;-93
2023/03/28 09:29:58;;;;;;;;;;;;;;;;;;5036208;28;19929;-93
2023/03/28 09:32:24;;;;;;;;;;;;;;;;;;5052743;28;19970;-91
2023/03/28 09:34:50;;;;;;;;;;;;;;;;;;5053054;28;19925;-90
2023/03/28 09:37:16;;;;;;;;;;;;;;;;;;5036178;28;19951;-91
2023/03/28 09:39:41;;;;;;;;;;;;;;;;;;5030562;28;19920;-92
2023/03/28 09:42:09;;;;;;;;;;;;;;;;;;5027594;28;19921;-92
2023/03/28 09:47:08;;;;;;;;;;;;;;;;;;5056010;28;19925;-91
2023/03/28 09:49:39;;;;;;;;;;;;;;;;;;5038414;28;19921;-91
2023/03/28 09:52:05;;;;;;;;;;;;;;;;;;5041544;28;19947;-92
2023/03/28 09:54:31;;;;;;;;;;;;;;;;;;5038529;28;19921;-91
2023/03/28 09:56:57;;;;;;;;;;;;;;;;;;5034141;28;20392;-89
2023/03/28 09:59:23;;;;;;;;;;;;;;;;;;5037025;28;19924;-88
2023/03/28 10:01:50;;;;;;;;;;;;;;;;;;5032793;28;19979;-89
2023/03/28 10:04:20;;;;;;;;;;;;;;;;;;5039384;28;19921;-89
2023/03/28 10:06:51;;;;;;;;;;;;;;;;;;5070232;28;19942;-89
2023/03/28 10:09:47;;;;;;;;;;;;;;;;;;5032152;28;19928;-88
2023/03/28 10:12:28;;;;;;;;;;;;;;;;;;5035439;28;19925;-88
2023/03/28 10:17:58;;;;;;;;;;;;;;;;;;5070161;28;19920;-92
2023/03/28 10:20:24;;;;;;;;;;;;;;;;;;5041581;28;19927;-90
2023/03/28 10:22:50;;;;;;;;;;;;;;;;;;5039596;28;20011;-89
2023/03/28 10:25:16;;;;;;;;;;;;;;;;;;5051741;28;19920;-90
2023/03/28 10:27:42;;;;;;;;;;;;;;;;;;5032324;28;20374;-90
2023/03/28 10:30:22;;;;;;;;;;;;;;;;;;5056813;28;20320;-90
2023/03/28 10:32:48;;;;;;;;;;;;;;;;;;5040444;28;19921;-91
2023/03/28 10:35:14;;;;;;;;;;;;;;;;;;5034801;28;19948;-90
2023/03/28 10:37:40;;;;;;;;;;;;;;;;;;5033604;28;19964;-88
2023/03/28 10:40:06;;;;;;;;;;;;;;;;;;5034129;28;19928;-89
2023/03/28 10:42:32;;;;;;;;;;;;;;;;;;5031546;28;20310;-90
2023/03/28 10:44:58;;;;;;;;;;;;;;;;;;5052843;28;19921;-89
2023/03/28 10:47:24;;;;;;;;;;;;;;;;;;5028351;28;20263;-89
2023/03/28 10:49:50;;;;;;;;;;;;;;;;;;5017882;28;19943;-89
2023/03/28 10:52:18;;;;;;;;;;;;;;;;;;5019716;28;19921;-89
2023/03/28 10:54:44;;;;;;;;;;;;;;;;;;5023369;28;19931;-89
2023/03/28 10:57:09;;;;;;;;;;;;;;;;;;5033425;28;20380;-90
2023/03/28 10:59:36;;;;;;;;;;;;;;;;;;5034782;28;19967;-90
2023/03/28 11:02:02;;;;;;;;;;;;;;;;;;5039692;28;19920;-89
2023/03/28 11:04:32;;;;;;;;;;;;;;;;;;5040557;28;19920;-89
2023/03/28 11:06:58;;;;;;;;;;;;;;;;;;5047993;28;19921;-90
2023/03/28 11:09:24;;;;;;;;;;;;;;;;;;5030994;28;20003;-90
2023/03/28 11:11:50;;;;;;;;;;;;;;;;;;5031318;28;19943;-89
2023/03/28 11:14:16;;;;;;;;;;;;;;;;;;5032207;28;19998;-89
2023/03/28 11:16:42;;;;;;;;;;;;;;;;;;5050045;28;19980;-90
2023/03/28 11:19:08;;;;;;;;;;;;;;;;;;5033986;28;19927;-90
2023/03/28 11:21:34;;;;;;;;;;;;;;;;;;5049176;28;19964;-89
2023/03/28 11:24:00;;;;;;;;;;;;;;;;;;5052611;28;20306;-91
2023/03/28 11:26:26;;;;;;;;;;;;;;;;;;5051599;28;19921;-89
2023/03/28 11:28:54;;;;;;;;;;;;;;;;;;5012822;28;19932;-89
2023/03/28 11:31:21;;;;;;;;;;;;;;;;;;5017566;28;19912;-94
2023/03/28 11:33:47;;;;;;;;;;;;;;;;;;5025530;28;20457;-90
2023/03/28 11:36:23;;;;;;;;;;;;;;;;;;5079802;28;19929;-88
2023/03/28 11:39:06;;;;;;;;;;;;;;;;;;5049859;28;19920;-90
2023/03/28 11:41:41;;;;;;;;;;;;;;;;;;5058145;28;19964;-88
2023/03/28 11:44:22;;;;;;;;;;;;;;;;;;5055687;28;20012;-91
2023/03/28 11:46:51;;;;;;;;;;;;;;;;;;5034501;28;19928;-90
2023/03/28 11:49:17;;;;;;;;;;;;;;;;;;5041595;28;19980;-90
2023/03/28 11:51:44;;;;;;;;;;;;;;;;;;5033578;28;19916;-89
2023/03/28 11:54:10;;;;;;;;;;;;;;;;;;5032987;28;19980;-88
2023/03/28 11:56:39;;;;;;;;;;;;;;;;;;5030840;28;19947;-89
2023/03/28 11:59:05;;;;;;;;;;;;;;;;;;5047949;28;19931;-89
2023/03/28 12:01:31;;;;;;;;;;;;;;;;;;5031841;28;19921;-88
2023/03/28 12:03:57;;;;;;;;;;;;;;;;;;5034389;28;19921;-88
2023/03/28 12:06:35;;;;;;;;;;;;;;;;;;5056331;28;19924;-92
2023/03/28 12:09:04;;;;;;;;;;;;;;;;;;5035459;28;19925;-91
2023/03/28 12:16:40;;;;;;;;;;;;;;;;;;5051557;28;19926;-90
2023/03/28 12:19:06;;;;;;;;;;;;;;;;;;5018810;28;19925;-88
2023/03/28 12:21:33;;;;;;;;;;;;;;;;;;5032904;28;19989;-91
2023/03/28 12:23:59;;;;;;;;;;;;;;;;;;5030945;28;19917;-90
2023/03/28 12:26:41;;;;;;;;;;;;;;;;;;5039092;28;19932;-90
2023/03/28 12:29:12;;;;;;;;;;;;;;;;;;5051255;28;19921;-89
2023/03/28 12:31:40;;;;;;;;;;;;;;;;;;5036452;28;19921;-91
2023/03/28 12:34:08;;;;;;;;;;;;;;;;;;5032291;28;19941;-90
2023/03/28 12:36:34;;;;;;;;;;;;;;;;;;5014083;28;19925;-89
2023/03/28 12:39:00;;;;;;;;;;;;;;;;;;5021707;28;19921;-91
2023/03/28 12:41:31;;;;;;;;;;;;;;;;;;5038849;28;19944;-88
2023/03/28 12:43:57;;;;;;;;;;;;;;;;;;5037482;28;19967;-88
2023/03/28 12:46:24;;;;;;;;;;;;;;;;;;5053490;28;19932;-90
2023/03/28 12:48:51;;;;;;;;;;;;;;;;;;5031325;28;20361;-90
2023/03/28 12:51:17;;;;;;;;;;;;;;;;;;5042049;28;19943;-89
2023/03/28 12:53:44;;;;;;;;;;;;;;;;;;5028983;28;19921;-89
2023/03/28 12:56:10;;;;;;;;;;;;;;;;;;5017686;28;19929;-88
2023/03/28 12:58:36;;;;;;;;;;;;;;;;;;5030935;28;19991;-90
2023/03/28 13:01:03;;;;;;;;;;;;;;;;;;5044728;28;19928;-91
2023/03/28 13:03:35;;;;;;;;;;;;;;;;;;5041622;28;19976;-91
2023/03/28 13:06:01;;;;;;;;;;;;;;;;;;5041540;28;19955;-89
2023/03/28 13:08:31;;;;;;;;;;;;;;;;;;5059342;28;19921;-90
2023/03/28 13:11:00;;;;;;;;;;;;;;;;;;5042516;28;19904;-91
2023/03/28 13:13:29;;;;;;;;;;;;;;;;;;5043206;28;20000;-90
2023/03/28 13:15:56;;;;;;;;;;;;;;;;;;5025581;28;19985;-87
2023/03/28 13:18:22;;;;;;;;;;;;;;;;;;5021600;28;19952;-90
2023/03/28 13:20:50;;;;;;;;;;;;;;;;;;5035848;28;20429;-90
2023/03/28 13:23:16;;;;;;;;;;;;;;;;;;5023460;28;19909;-93
2023/03/28 13:25:45;;;;;;;;;;;;;;;;;;5039207;28;19917;-90
2023/03/28 13:28:11;;;;;;;;;;;;;;;;;;5020958;28;19928;-89
2023/03/28 13:30:38;;;;;;;;;;;;;;;;;;5057289;28;19928;-90
2023/03/28 13:33:07;;;;;;;;;;;;;;;;;;5058155;28;19921;-89
2023/03/28 13:35:35;;;;;;;;;;;;;;;;;;5041713;28;19924;-91
2023/03/28 13:38:05;;;;;;;;;;;;;;;;;;5056078;28;19921;-88
2023/03/28 13:40:32;;;;;;;;;;;;;;;;;;5055955;28;19920;-89
2023/03/28 13:42:59;;;;;;;;;;;;;;;;;;5041616;28;19928;-89
2023/03/28 13:45:28;;;;;;;;;;;;;;;;;;5040544;28;19920;-90
2023/03/28 13:47:55;;;;;;;;;;;;;;;;;;5056201;28;19920;-91
2023/03/28 13:50:21;;;;;;;;;;;;;;;;;;5023079;28;19925;-90
2023/03/28 13:52:47;;;;;;;;;;;;;;;;;;5030952;28;20271;-89
2023/03/28 13:55:16;;;;;;;;;;;;;;;;;;5038875;28;19924;-90
2023/03/28 13:57:42;;;;;;;;;;;;;;;;;;5039794;28;19927;-87
2023/03/28 14:00:09;;;;;;;;;;;;;;;;;;5037948;28;19921;-88
2023/03/28 14:02:36;;;;;;;;;;;;;;;;;;5024260;28;19944;-88
2023/03/28 14:05:02;;;;;;;;;;;;;;;;;;5022052;28;19921;-88
2023/03/28 14:07:34;;;;;;;;;;;;;;;;;;5022868;28;19928;-88
2023/03/28 14:10:03;;;;;;;;;;;;;;;;;;5036313;28;19921;-88
2023/03/28 14:12:31;;;;;;;;;;;;;;;;;;5021913;28;19932;-90
2023/03/28 14:14:57;;;;;;;;;;;;;;;;;;5052188;28;20344;-90
2023/03/28 14:17:26;;;;;;;;;;;;;;;;;;5041079;28;19951;-89
2023/03/28 14:19:53;;;;;;;;;;;;;;;;;;5037854;28;19927;-91
2023/03/28 14:22:20;;;;;;;;;;;;;;;;;;5057284;28;19956;-90
2023/03/28 14:24:46;;;;;;;;;;;;;;;;;;5037666;28;19921;-88
2023/03/28 14:27:14;;;;;;;;;;;;;;;;;;5037917;28;19921;-88
2023/03/28 14:29:40;;;;;;;;;;;;;;;;;;5038644;28;19928;-89
2023/03/28 14:32:06;;;;;;;;;;;;;;;;;;5039362;28;19927;-89
2023/03/28 14:34:35;;;;;;;;;;;;;;;;;;5018183;28;19921;-89
2023/03/28 14:37:04;;;;;;;;;;;;;;;;;;5032707;28;19927;-89
2023/03/28 14:39:31;;;;;;;;;;;;;;;;;;5012172;28;19925;-91
2023/03/28 14:42:03;;;;;;;;;;;;;;;;;;5014208;28;19921;-89
2023/03/28 14:44:32;;;;;;;;;;;;;;;;;;5044724;28;20293;-91
2023/03/28 14:46:58;;;;;;;;;;;;;;;;;;5029491;28;19921;-93
2023/03/28 14:49:24;;;;;;;;;;;;;;;;;;5027521;28;19929;-92
2023/03/28 14:51:51;;;;;;;;;;;;;;;;;;5021565;28;19928;-93
2023/03/28 14:54:17;;;;;;;;;;;;;;;;;;5029179;28;20359;-90
2023/03/28 14:56:43;;;;;;;;;;;;;;;;;;5043196;28;19925;-93
2023/03/28 15:02:07;;;;;;;;;;;;;;;;;;5051091;28;19921;-94
2023/03/28 15:04:39;;;;;;;;;;;;;;;;;;5042129;28;19953;-95
2023/03/28 15:07:07;;;;;;;;;;;;;;;;;;5037863;28;19927;-95
2023/03/28 15:09:55;;;;;;;;;;;;;;;;;;5023726;28;19928;-94
2023/03/28 15:12:29;;;;;;;;;;;;;;;;;;5047651;28;19905;-95
2023/03/28 15:18:04;;;;;;;;;;;;;;;;;;5056118;28;19928;-96
2023/03/28 15:20:31;;;;;;;;;;;;;;;;;;5042938;28;19924;-92
2023/03/28 15:23:00;;;;;;;;;;;;;;;;;;5034230;28;19920;-91
2023/03/28 15:25:26;;;;;;;;;;;;;;;;;;5039434;28;19959;-94
2023/03/28 15:27:55;;;;;;;;;;;;;;;;;;5035359;28;19921;-89
2023/03/28 15:30:21;;;;;;;;;;;;;;;;;;5033804;28;19921;-88
2023/03/28 15:43:28;;;;;;;;;;;;;;;;;;6178936;22;1945208;-89
2023/03/28 15:45:54;;;;;;;;;;;;;;;;;;6185420;23;19919;-89
2023/03/28 15:48:20;;;;;;;;;;;;;;;;;;6192450;23;19916;-89
2023/03/28 15:50:47;;;;;;;;;;;;;;;;;;6196244;23;19916;-89
2023/03/28 15:53:31;;;;;;;;;;;;;;;;;;6217783;23;19976;-90
2023/03/28 15:56:00;;;;;;;;;;;;;;;;;;6187655;23;19919;-88
2023/03/28 15:58:30;;;;;;;;;;;;;;;;;;6227387;23;19916;-89
2023/03/28 16:00:56;;;;;;;;;;;;;;;;;;6185177;23;19920;-89
2023/03/28 16:03:25;;;;;;;;;;;;;;;;;;6190369;23;19955;-90
2023/03/28 16:05:51;;;;;;;;;;;;;;;;;;6194811;23;19940;-91
2023/03/28 16:08:17;;;;;;;;;;;;;;;;;;6188979;23;19920;-89
2023/03/28 16:10:43;;;;;;;;;;;;;;;;;;6184479;23;19920;-90
2023/03/28 16:13:13;;;;;;;;;;;;;;;;;;6187135;23;19970;-89
2023/03/28 16:15:39;;;;;;;;;;;;;;;;;;6186490;23;19916;-89
2023/03/28 16:18:05;;;;;;;;;;;;;;;;;;6217569;23;19916;-89
2023/03/28 16:20:33;;;;;;;;;;;;;;;;;;6220881;23;19916;-89
2023/03/28 16:23:00;;;;;;;;;;;;;;;;;;6189164;23;19916;-90
2023/03/28 16:25:26;;;;;;;;;;;;;;;;;;6169411;23;19959;-89
2023/03/28 16:27:54;;;;;;;;;;;;;;;;;;6188769;23;19921;-90
2023/03/28 16:30:20;;;;;;;;;;;;;;;;;;6162550;23;19951;-89
2023/03/28 16:32:46;;;;;;;;;;;;;;;;;;6154563;23;19948;-89
2023/03/28 16:35:12;;;;;;;;;;;;;;;;;;6155027;23;19942;-89
2023/03/28 16:37:38;;;;;;;;;;;;;;;;;;6154724;23;19919;-89
2023/03/28 16:40:04;;;;;;;;;;;;;;;;;;6155991;23;19916;-89
2023/03/28 16:42:30;;;;;;;;;;;;;;;;;;6153314;23;19923;-89
2023/03/28 16:44:58;;;;;;;;;;;;;;;;;;6153456;23;19916;-89
2023/03/28 16:47:24;;;;;;;;;;;;;;;;;;6154425;23;19991;-90
2023/03/28 16:49:50;;;;;;;;;;;;;;;;;;6149839;23;19936;-89
2023/03/28 16:52:16;;;;;;;;;;;;;;;;;;6158864;23;19920;-90
2023/03/28 16:54:47;;;;;;;;;;;;;;;;;;6151843;23;19916;-88
2023/03/28 16:57:13;;;;;;;;;;;;;;;;;;6149072;23;20297;-88
2023/03/28 16:59:39;;;;;;;;;;;;;;;;;;6153195;23;19924;-89
2023/03/28 17:02:06;;;;;;;;;;;;;;;;;;6150667;23;19940;-90
2023/03/28 17:04:32;;;;;;;;;;;;;;;;;;6176048;23;20231;-89
2023/03/28 17:06:58;;;;;;;;;;;;;;;;;;6149306;23;19943;-90
2023/03/28 17:09:26;;;;;;;;;;;;;;;;;;6155534;23;19916;-90
2023/03/28 17:11:52;;;;;;;;;;;;;;;;;;6158797;23;19951;-89
2023/03/28 17:14:18;;;;;;;;;;;;;;;;;;6154678;23;19920;-90
2023/03/28 17:16:44;;;;;;;;;;;;;;;;;;6151586;23;19917;-89
2023/03/28 17:19:21;;;;;;;;;;;;;;;;;;6184231;23;19923;-90
2023/03/28 17:21:55;;;;;;;;;;;;;;;;;;6178960;23;19923;-89
2023/03/28 17:24:21;;;;;;;;;;;;;;;;;;6174011;23;19940;-89
2023/03/28 17:26:47;;;;;;;;;;;;;;;;;;6149215;23;19924;-90
2023/03/28 17:29:14;;;;;;;;;;;;;;;;;;6174727;23;19920;-90